createdAt,value
2017-08-17T00:00:42.507Z,16.57
2017-08-17T00:03:11.633Z,12.83
2017-08-17T00:05:40.788Z,17.53
2017-08-17T00:08:09.997Z,17.50
2017-08-17T00:10:39.126Z,15.33
2017-08-17T00:13:08.247Z,13.63
2017-08-17T00:15:37.366Z,17.00
2017-08-17T00:18:06.518Z,15.40
2017-08-17T00:20:35.740Z,16.10
2017-08-17T00:23:05.415Z,16.17
2017-08-17T00:25:34.545Z,16.30
2017-08-17T00:28:03.751Z,17.57
2017-08-17T00:30:32.873Z,16.63
2017-08-17T00:33:02.012Z,15.97
2017-08-17T00:35:31.136Z,16.37
2017-08-17T00:38:00.291Z,17.63
2017-08-17T00:40:29.438Z,17.03
2017-08-17T00:42:58.541Z,19.10
2017-08-17T00:45:27.681Z,16.30
2017-08-17T00:47:56.810Z,20.93
2017-08-17T00:50:25.913Z,23.40
2017-08-17T00:52:55.049Z,18.77
2017-08-17T00:55:24.153Z,20.80
2017-08-17T00:57:53.466Z,18.97
2017-08-17T01:00:22.597Z,18.33
2017-08-17T01:02:51.748Z,16.30
2017-08-17T01:05:20.880Z,22.93
2017-08-17T01:07:50.012Z,29.83
2017-08-17T01:10:19.128Z,24.17
2017-08-17T01:12:48.268Z,26.37
2017-08-17T01:15:17.387Z,21.37
2017-08-17T01:17:46.504Z,22.10
2017-08-17T01:22:52.225Z,22.10
2017-08-17T01:30:31.496Z,20.50
2017-08-17T01:33:00.653Z,18.13
2017-08-17T01:35:29.763Z,18.93
2017-08-17T01:37:58.884Z,19.13
2017-08-17T01:40:28.007Z,20.70
2017-08-17T01:42:57.145Z,19.47
2017-08-17T01:45:26.283Z,22.17
2017-08-17T01:47:55.387Z,22.07
2017-08-17T01:50:24.512Z,18.13
2017-08-17T01:52:53.629Z,21.47
2017-08-17T01:55:22.761Z,24.57
2017-08-17T01:57:51.892Z,26.90
2017-08-17T02:00:21.001Z,23.37
2017-08-17T02:02:50.128Z,27.53
2017-08-17T02:05:19.245Z,25.33
2017-08-17T02:07:48.365Z,24.40
2017-08-17T02:10:17.605Z,25.30
2017-08-17T02:12:46.722Z,25.00
2017-08-17T02:15:15.859Z,26.40
2017-08-17T02:17:44.972Z,21.50
2017-08-17T02:20:14.105Z,30.60
2017-08-17T02:22:43.228Z,27.27
2017-08-17T02:25:12.333Z,22.03
2017-08-17T02:27:41.457Z,22.43
2017-08-17T02:30:10.578Z,22.50
2017-08-17T02:32:39.705Z,22.53
2017-08-17T02:35:08.822Z,27.67
2017-08-17T02:37:37.952Z,18.90
2017-08-17T02:40:07.153Z,23.23
2017-08-17T02:42:36.278Z,18.43
2017-08-17T02:45:05.392Z,21.27
2017-08-17T02:47:34.508Z,23.17
2017-08-17T02:50:04.345Z,25.53
2017-08-17T02:52:33.452Z,29.60
2017-08-17T02:55:02.573Z,21.37
2017-08-17T02:57:31.836Z,20.03
2017-08-17T03:00:00.947Z,19.10
2017-08-17T03:02:30.107Z,21.47
2017-08-17T03:04:59.266Z,20.30
2017-08-17T03:07:28.497Z,27.47
2017-08-17T03:09:57.613Z,23.20
2017-08-17T03:12:26.745Z,23.27
2017-08-17T03:14:55.856Z,30.70
2017-08-17T03:17:24.972Z,25.53
2017-08-17T03:19:55.048Z,22.40
2017-08-17T03:22:24.183Z,24.27
2017-08-17T03:24:53.313Z,25.67
2017-08-17T03:27:22.437Z,20.50
2017-08-17T03:29:51.610Z,23.67
2017-08-17T03:32:20.721Z,23.03
2017-08-17T03:34:49.846Z,18.50
2017-08-17T03:37:18.980Z,19.80
2017-08-17T03:39:48.108Z,19.60
2017-08-17T03:42:17.220Z,16.10
2017-08-17T03:44:46.340Z,17.27
2017-08-17T03:47:15.467Z,16.33
2017-08-17T03:49:44.576Z,20.00
2017-08-17T03:52:13.705Z,16.13
2017-08-17T03:54:42.840Z,20.27
2017-08-17T03:57:12.116Z,17.80
2017-08-17T03:59:41.296Z,16.20
2017-08-17T04:02:10.413Z,17.27
2017-08-17T04:04:39.555Z,21.30
2017-08-17T04:07:08.868Z,16.13
2017-08-17T04:09:37.983Z,23.97
2017-08-17T04:12:07.120Z,15.07
2017-08-17T04:14:36.299Z,19.53
2017-08-17T04:17:05.417Z,15.93
2017-08-17T04:19:34.553Z,17.83
2017-08-17T04:22:03.728Z,17.50
2017-08-17T04:24:32.856Z,22.83
2017-08-17T04:27:01.984Z,16.63
2017-08-17T04:29:31.096Z,22.17
2017-08-17T04:32:00.252Z,20.13
2017-08-17T04:34:29.529Z,13.47
2017-08-17T04:36:58.633Z,15.13
2017-08-17T04:39:27.925Z,14.47
2017-08-17T04:41:57.048Z,14.03
2017-08-17T04:44:26.172Z,17.47
2017-08-17T04:46:55.289Z,20.63
2017-08-17T04:49:24.414Z,15.93
2017-08-17T04:51:53.529Z,23.80
2017-08-17T04:54:22.661Z,15.87
2017-08-17T04:57:03.477Z,18.07
2017-08-17T04:59:32.595Z,21.00
2017-08-17T05:02:01.728Z,19.47
2017-08-17T05:04:30.858Z,19.33
2017-08-17T05:07:00.017Z,17.53
2017-08-17T05:09:29.146Z,18.90
2017-08-17T05:11:58.281Z,17.03
2017-08-17T05:14:27.419Z,20.57
2017-08-17T05:16:56.624Z,20.50
2017-08-17T05:19:25.757Z,19.10
2017-08-17T05:21:54.897Z,19.13
2017-08-17T05:24:24.040Z,19.33
2017-08-17T05:26:53.160Z,28.83
2017-08-17T05:29:22.284Z,15.43
2017-08-17T05:31:56.604Z,18.90
2017-08-17T05:34:25.728Z,18.47
2017-08-17T05:36:55.016Z,24.73
2017-08-17T05:39:24.141Z,18.07
2017-08-17T05:41:53.260Z,16.67
2017-08-17T05:44:22.388Z,19.73
2017-08-17T05:46:51.642Z,24.90
2017-08-17T05:49:20.777Z,18.20
2017-08-17T05:51:49.972Z,29.93
2017-08-17T05:54:19.164Z,21.03
2017-08-17T05:56:48.263Z,17.27
2017-08-17T05:59:17.396Z,21.97
2017-08-17T06:01:46.510Z,20.80
2017-08-17T06:04:16.172Z,25.10
2017-08-17T06:06:45.313Z,19.50
2017-08-17T06:09:14.425Z,15.57
2017-08-17T06:11:43.549Z,25.37
2017-08-17T06:14:12.672Z,16.40
2017-08-17T06:16:41.826Z,21.33
2017-08-17T06:19:10.940Z,20.23
2017-08-17T06:21:40.195Z,22.50
2017-08-17T06:24:09.390Z,18.37
2017-08-17T06:26:38.585Z,20.20
2017-08-17T06:29:07.712Z,16.27
2017-08-17T06:31:36.821Z,19.07
2017-08-17T06:34:05.945Z,18.30
2017-08-17T06:36:35.065Z,22.50
2017-08-17T06:39:04.292Z,20.00
2017-08-17T06:41:33.421Z,24.00
2017-08-17T06:44:02.539Z,15.43
2017-08-17T06:46:31.663Z,20.40
2017-08-17T06:49:00.789Z,19.43
2017-08-17T06:51:29.920Z,18.23
2017-08-17T06:53:59.040Z,16.97
2017-08-17T06:56:28.160Z,15.90
2017-08-17T06:58:57.426Z,17.30
2017-08-17T07:01:26.547Z,16.03
2017-08-17T07:03:55.682Z,14.77
2017-08-17T07:06:24.791Z,15.40
2017-08-17T07:08:54.037Z,17.67
2017-08-17T07:11:23.162Z,13.70
2017-08-17T07:13:52.498Z,20.37
2017-08-17T07:16:21.606Z,13.63
2017-08-17T07:18:50.744Z,15.40
2017-08-17T07:21:19.908Z,17.50
2017-08-17T07:23:49.064Z,13.20
2017-08-17T07:26:18.181Z,18.83
2017-08-17T07:28:47.315Z,15.53
2017-08-17T07:31:16.452Z,20.80
2017-08-17T07:33:45.591Z,17.83
2017-08-17T07:36:14.765Z,15.80
2017-08-17T07:38:43.882Z,16.90
2017-08-17T07:41:13.001Z,15.70
2017-08-17T07:43:42.117Z,19.43
2017-08-17T07:46:11.245Z,14.57
2017-08-17T07:48:40.377Z,14.00
2017-08-17T07:51:09.498Z,11.40
2017-08-17T07:53:38.608Z,11.83
2017-08-17T07:56:07.714Z,7.70
2017-08-17T07:58:36.846Z,8.37
2017-08-17T08:01:06.085Z,8.60
2017-08-17T08:03:35.179Z,7.00
2017-08-17T08:06:04.297Z,8.30
2017-08-17T08:08:33.439Z,12.80
2017-08-17T08:11:02.564Z,7.30
2017-08-17T08:13:31.733Z,10.87
2017-08-17T08:16:00.874Z,9.00
2017-08-17T08:18:30.021Z,16.73
2017-08-17T08:20:59.165Z,7.33
2017-08-17T08:23:28.276Z,8.33
2017-08-17T08:25:57.381Z,10.47
2017-08-17T08:28:26.522Z,7.30
2017-08-17T08:30:55.632Z,19.20
2017-08-17T08:33:24.772Z,18.27
2017-08-17T08:35:53.882Z,19.70
2017-08-17T08:38:22.996Z,8.30
2017-08-17T08:40:52.345Z,14.10
2017-08-17T08:43:21.461Z,8.83
2017-08-17T08:45:50.603Z,18.90
2017-08-17T08:48:19.703Z,10.83
2017-08-17T08:50:48.827Z,13.43
2017-08-17T08:53:18.531Z,10.57
2017-08-17T08:55:47.637Z,16.63
2017-08-17T08:58:16.760Z,12.30
2017-08-17T09:00:45.986Z,12.53
2017-08-17T09:03:15.129Z,8.53
2017-08-17T09:05:44.242Z,10.73
2017-08-17T09:08:13.362Z,9.80
2017-08-17T09:10:42.473Z,10.10
2017-08-17T09:13:11.615Z,18.13
2017-08-17T09:15:40.721Z,13.27
2017-08-17T09:18:09.856Z,15.63
2017-08-17T09:20:38.981Z,16.80
2017-08-17T09:23:08.102Z,12.50
2017-08-17T09:25:37.217Z,9.70
2017-08-17T09:28:06.345Z,25.00
2017-08-17T09:30:35.481Z,14.17
2017-08-17T09:33:04.603Z,5.73
2017-08-17T09:35:33.722Z,7.50
2017-08-17T09:38:02.841Z,14.83
2017-08-17T09:40:31.970Z,11.90
2017-08-17T09:43:01.072Z,7.60
2017-08-17T09:45:30.193Z,8.60
2017-08-17T09:47:59.323Z,8.43
2017-08-17T09:50:28.543Z,6.33
2017-08-17T09:52:57.669Z,9.00
2017-08-17T09:55:26.896Z,12.30
2017-08-17T09:57:56.021Z,13.40
2017-08-17T10:00:25.144Z,7.60
2017-08-17T10:02:54.265Z,6.57
2017-08-17T10:05:23.377Z,5.13
2017-08-17T10:07:52.504Z,10.20
2017-08-17T10:10:21.609Z,8.23
2017-08-17T10:12:50.753Z,6.50
2017-08-17T10:15:19.856Z,9.93
2017-08-17T10:17:49.793Z,5.93
2017-08-17T10:20:18.919Z,5.93
2017-08-17T10:22:48.132Z,10.50
2017-08-17T10:25:17.244Z,5.50
2017-08-17T10:27:46.388Z,6.40
2017-08-17T10:30:15.501Z,7.40
2017-08-17T10:32:44.614Z,7.83
2017-08-17T10:35:13.741Z,7.03
2017-08-17T10:37:43.800Z,9.43
2017-08-17T10:40:12.909Z,7.67
2017-08-17T10:42:42.049Z,9.23
2017-08-17T10:45:11.177Z,9.13
2017-08-17T10:47:40.313Z,7.33
2017-08-17T10:50:09.568Z,5.00
2017-08-17T10:52:38.677Z,8.40
2017-08-17T10:55:07.797Z,6.43
2017-08-17T10:57:36.933Z,4.30
2017-08-17T11:00:06.060Z,15.47
2017-08-17T11:02:35.168Z,4.77
2017-08-17T11:05:04.356Z,10.63
2017-08-17T11:07:33.471Z,14.97
2017-08-17T11:10:02.614Z,6.03
2017-08-17T11:12:31.935Z,4.93
2017-08-17T11:15:01.056Z,7.80
2017-08-17T11:17:30.224Z,4.93
2017-08-17T11:19:59.326Z,4.93
2017-08-17T11:22:28.443Z,5.00
2017-08-17T11:24:57.568Z,6.60
2017-08-17T11:27:26.729Z,10.90
2017-08-17T11:29:55.945Z,14.30
2017-08-17T11:32:25.060Z,4.60
2017-08-17T11:34:54.172Z,3.20
2017-08-17T11:37:23.285Z,6.33
2017-08-17T11:39:52.389Z,3.20
2017-08-17T11:42:21.522Z,3.93
2017-08-17T11:44:50.630Z,3.67
2017-08-17T11:47:19.746Z,4.83
2017-08-17T11:49:48.955Z,2.90
2017-08-17T11:52:18.673Z,5.70
2017-08-17T11:54:47.810Z,4.83
2017-08-17T11:57:16.929Z,4.50
2017-08-17T11:59:46.153Z,3.93
2017-08-17T12:02:15.269Z,11.70
2017-08-17T12:04:44.376Z,3.43
2017-08-17T12:07:13.492Z,4.87
2017-08-17T12:09:42.602Z,7.43
2017-08-17T12:12:11.731Z,2.60
2017-08-17T12:14:40.852Z,3.23
2017-08-17T12:17:09.974Z,9.43
2017-08-17T12:19:39.090Z,2.90
2017-08-17T12:22:08.300Z,4.40
2017-08-17T12:24:37.421Z,3.03
2017-08-17T12:27:06.728Z,5.67
2017-08-17T12:29:36.005Z,5.50
2017-08-17T12:32:05.180Z,5.97
2017-08-17T12:34:34.313Z,2.53
2017-08-17T12:37:03.428Z,4.50
2017-08-17T12:39:32.707Z,3.43
2017-08-17T12:42:02.124Z,6.53
2017-08-17T12:44:31.239Z,3.93
2017-08-17T12:47:00.381Z,8.40
2017-08-17T12:49:29.500Z,3.23
2017-08-17T12:51:58.644Z,9.63
2017-08-17T12:54:27.765Z,4.97
2017-08-17T12:56:56.910Z,7.17
2017-08-17T12:59:26.011Z,7.70
2017-08-17T13:01:55.128Z,4.13
2017-08-17T13:04:24.240Z,8.10
2017-08-17T13:06:53.376Z,3.73
2017-08-17T13:09:22.485Z,4.93
2017-08-17T13:11:51.621Z,4.00
2017-08-17T13:14:20.728Z,4.70
2017-08-17T13:16:49.840Z,4.13
2017-08-17T13:19:18.960Z,4.90
2017-08-17T13:21:48.076Z,10.63
2017-08-17T13:24:17.205Z,6.13
2017-08-17T13:26:46.313Z,4.93
2017-08-17T13:29:15.424Z,3.70
2017-08-17T13:31:44.538Z,3.53
2017-08-17T13:34:13.676Z,3.17
2017-08-17T13:36:42.793Z,4.53
2017-08-17T13:39:11.920Z,3.30
2017-08-17T13:41:41.035Z,7.70
2017-08-17T13:44:10.857Z,3.37
2017-08-17T13:46:39.980Z,7.53
2017-08-17T13:49:09.103Z,2.83
2017-08-17T13:51:38.273Z,3.53
2017-08-17T13:54:07.399Z,5.83
2017-08-17T13:56:36.519Z,3.17
2017-08-17T13:59:05.637Z,6.13
2017-08-17T14:01:34.736Z,4.90
2017-08-17T14:04:03.857Z,2.77
2017-08-17T14:06:32.965Z,3.80
2017-08-17T14:09:02.089Z,4.40
2017-08-17T14:11:31.307Z,3.87
2017-08-17T14:14:00.768Z,10.73
2017-08-17T14:16:29.866Z,2.83
2017-08-17T14:18:58.981Z,5.47
2017-08-17T14:21:28.123Z,9.57
2017-08-17T14:23:57.242Z,6.07
2017-08-17T14:26:26.405Z,6.53
2017-08-17T14:28:55.518Z,11.63
2017-08-17T14:31:24.631Z,6.80
2017-08-17T14:33:53.752Z,10.27
2017-08-17T14:36:22.979Z,8.07
2017-08-17T14:38:52.084Z,7.00
2017-08-17T14:41:21.206Z,5.53
2017-08-17T14:43:50.349Z,4.87
2017-08-17T14:46:19.504Z,9.30
2017-08-17T14:48:48.617Z,13.60
2017-08-17T14:51:17.733Z,6.00
2017-08-17T14:53:46.859Z,4.87
2017-08-17T14:56:16.140Z,8.33
2017-08-17T14:58:45.239Z,5.20
2017-08-17T15:01:14.380Z,8.03
2017-08-17T15:03:43.476Z,11.53
2017-08-17T15:06:12.597Z,7.07
2017-08-17T15:08:41.706Z,8.63
2017-08-17T15:11:10.848Z,5.60
2017-08-17T15:13:39.964Z,8.30
2017-08-17T15:16:09.094Z,8.10
2017-08-17T15:18:38.213Z,5.97
2017-08-17T15:21:07.334Z,4.37
2017-08-17T15:23:36.637Z,3.30
2017-08-17T15:26:05.800Z,5.43
2017-08-17T15:28:34.919Z,3.97
2017-08-17T15:31:04.045Z,3.40
2017-08-17T15:33:33.181Z,3.70
2017-08-17T15:36:02.285Z,5.60
2017-08-17T15:38:31.440Z,3.33
2017-08-17T15:41:00.548Z,4.93
2017-08-17T15:43:29.648Z,3.63
2017-08-17T15:45:58.793Z,3.70
2017-08-17T15:48:27.900Z,3.77
2017-08-17T15:50:57.020Z,7.73
2017-08-17T15:53:26.213Z,3.77
2017-08-17T15:55:55.317Z,5.83
2017-08-17T15:58:24.426Z,6.97
2017-08-17T16:00:53.552Z,3.43
2017-08-17T16:03:22.677Z,3.17
2017-08-17T16:05:51.782Z,3.20
2017-08-17T16:08:20.905Z,3.80
2017-08-17T16:10:50.021Z,4.70
2017-08-17T16:13:19.183Z,3.90
2017-08-17T16:15:48.301Z,3.67
2017-08-17T16:18:17.417Z,3.90
2017-08-17T16:20:46.563Z,3.60
2017-08-17T16:23:15.667Z,3.47
2017-08-17T16:25:44.798Z,4.90
2017-08-17T16:28:13.901Z,3.50
2017-08-17T16:30:43.028Z,4.13
2017-08-17T16:33:12.147Z,8.20
2017-08-17T16:35:41.281Z,5.83
2017-08-17T16:38:10.727Z,4.53
2017-08-17T16:40:40.174Z,4.43
2017-08-17T16:43:09.280Z,3.73
2017-08-17T16:45:38.409Z,3.57
2017-08-17T16:48:07.557Z,4.00
2017-08-17T16:50:36.665Z,5.27
2017-08-17T16:53:05.800Z,4.13
2017-08-17T16:55:34.975Z,3.37
2017-08-17T16:58:04.080Z,8.77
2017-08-17T17:00:33.195Z,3.43
2017-08-17T17:03:02.653Z,4.23
2017-08-17T17:05:31.772Z,6.60
2017-08-17T17:08:00.908Z,6.60
2017-08-17T17:10:30.024Z,2.97
2017-08-17T17:12:59.142Z,3.10
2017-08-17T17:15:28.268Z,4.73
2017-08-17T17:17:57.385Z,4.93
2017-08-17T17:20:26.483Z,5.00
2017-08-17T17:22:55.621Z,3.10
2017-08-17T17:25:24.780Z,3.17
2017-08-17T17:27:53.898Z,4.40
2017-08-17T17:30:23.013Z,2.87
2017-08-17T17:32:52.345Z,3.00
2017-08-17T17:35:21.481Z,5.80
2017-08-17T17:37:50.734Z,2.90
2017-08-17T17:40:19.864Z,4.13
2017-08-17T17:42:48.985Z,4.07
2017-08-17T17:45:18.119Z,5.10
2017-08-17T17:47:47.245Z,4.13
2017-08-17T17:50:16.376Z,3.03
2017-08-17T17:52:45.488Z,3.87
2017-08-17T17:55:14.618Z,9.97
2017-08-17T17:57:43.745Z,3.50
2017-08-17T18:00:12.860Z,2.30
2017-08-17T18:02:41.984Z,3.63
2017-08-17T18:05:11.101Z,4.97
2017-08-17T18:07:40.349Z,3.50
2017-08-17T18:10:09.460Z,5.50
2017-08-17T18:12:38.564Z,3.80
2017-08-17T18:15:07.677Z,3.23
2017-08-17T18:17:36.838Z,5.23
2017-08-17T18:20:09.556Z,3.40
2017-08-17T18:22:39.199Z,2.60
2017-08-17T18:25:08.297Z,2.63
2017-08-17T18:27:37.421Z,4.07
2017-08-17T18:30:06.534Z,2.53
2017-08-17T18:32:35.645Z,2.53
2017-08-17T18:35:04.763Z,5.40
2017-08-17T18:37:33.891Z,4.13
2017-08-17T18:40:02.988Z,3.90
2017-08-17T18:42:32.153Z,2.70
2017-08-17T18:45:01.257Z,3.87
2017-08-17T18:47:30.388Z,2.60
2017-08-17T18:49:59.501Z,2.90
2017-08-17T18:52:28.618Z,2.73
2017-08-17T18:54:57.752Z,3.07
2017-08-17T18:57:26.857Z,2.70
2017-08-17T18:59:55.988Z,2.80
2017-08-17T19:02:25.097Z,7.80
2017-08-17T19:04:54.213Z,3.30
2017-08-17T19:07:23.337Z,4.07
2017-08-17T19:09:53.098Z,3.30
2017-08-17T19:12:22.209Z,2.33
2017-08-17T19:14:51.324Z,2.70
2017-08-17T19:17:20.681Z,2.37
2017-08-17T19:19:49.801Z,3.43
2017-08-17T19:22:19.061Z,9.63
2017-08-17T19:24:48.225Z,2.50
2017-08-17T19:27:17.333Z,2.10
2017-08-17T19:29:46.466Z,2.50
2017-08-17T19:32:15.586Z,2.33
2017-08-17T19:34:44.697Z,2.30
2017-08-17T19:37:13.812Z,1.97
2017-08-17T19:39:42.945Z,2.40
2017-08-17T19:44:47.637Z,2.47
2017-08-17T19:47:16.764Z,3.17
2017-08-17T19:49:45.876Z,2.30
2017-08-17T19:52:14.996Z,2.97
2017-08-17T19:54:44.209Z,2.23
2017-08-17T19:57:13.321Z,3.87
2017-08-17T19:59:42.432Z,3.40
2017-08-17T20:02:11.574Z,2.90
2017-08-17T20:04:40.704Z,7.10
2017-08-17T20:07:09.820Z,5.47
2017-08-17T20:09:39.392Z,4.03
2017-08-17T20:12:08.534Z,2.93
2017-08-17T20:14:37.788Z,3.50
2017-08-17T20:17:06.902Z,2.30
2017-08-17T20:19:36.041Z,3.87
2017-08-17T20:22:05.166Z,2.10
2017-08-17T20:24:34.308Z,3.47
2017-08-17T20:27:03.407Z,4.43
2017-08-17T20:29:32.538Z,4.27
2017-08-17T20:32:01.671Z,2.60
2017-08-17T20:34:30.793Z,2.00
2017-08-17T20:36:59.925Z,5.37
2017-08-17T20:39:29.044Z,6.63
2017-08-17T20:41:58.177Z,2.67
2017-08-17T20:44:27.315Z,3.13
2017-08-17T20:46:56.461Z,3.40
2017-08-17T20:49:25.677Z,2.77
2017-08-17T20:51:54.831Z,4.33
2017-08-17T20:54:24.061Z,3.90
2017-08-17T20:56:53.192Z,3.40
2017-08-17T20:59:22.315Z,2.50
2017-08-17T21:01:51.464Z,3.20
2017-08-17T21:04:20.613Z,3.40
2017-08-17T21:06:49.747Z,3.20
2017-08-17T21:09:18.857Z,2.60
2017-08-17T21:11:48.008Z,2.40
2017-08-17T21:14:17.121Z,2.40
2017-08-17T21:16:46.258Z,2.63
2017-08-17T21:19:15.401Z,2.60
2017-08-17T21:21:44.577Z,2.57
2017-08-17T21:24:13.707Z,3.00
2017-08-17T21:26:42.838Z,2.50
2017-08-17T21:29:12.008Z,2.40
2017-08-17T21:31:41.125Z,2.43
2017-08-17T21:34:10.246Z,4.23
2017-08-17T21:36:39.364Z,2.40
2017-08-17T21:39:08.468Z,3.30
2017-08-17T21:41:37.608Z,3.77
2017-08-17T21:44:06.733Z,3.93
2017-08-17T21:46:35.858Z,2.60
2017-08-17T21:49:33.957Z,3.10
2017-08-17T21:52:03.065Z,3.37
2017-08-17T21:54:32.184Z,2.60
2017-08-17T21:57:01.285Z,4.13
2017-08-17T21:59:30.400Z,3.20
2017-08-17T22:01:59.521Z,3.37
2017-08-17T22:04:28.741Z,4.00
2017-08-17T22:06:57.836Z,3.60
2017-08-17T22:09:26.942Z,5.00
2017-08-17T22:11:56.075Z,2.70
2017-08-17T22:14:25.337Z,3.30
2017-08-17T22:16:54.482Z,3.53
2017-08-17T22:19:23.593Z,4.00
2017-08-17T22:21:52.700Z,2.60
2017-08-17T22:24:21.824Z,2.70
2017-08-17T22:26:50.941Z,4.57
2017-08-17T22:29:20.056Z,8.27
2017-08-17T22:31:49.225Z,3.93
2017-08-17T22:34:18.502Z,6.80
2017-08-17T22:36:47.623Z,3.70
2017-08-17T22:39:17.026Z,5.57
2017-08-17T22:41:46.136Z,5.97
2017-08-17T22:44:15.256Z,2.93
2017-08-17T22:46:44.636Z,3.30
2017-08-17T22:49:13.743Z,5.70
2017-08-17T22:51:43.072Z,3.30
2017-08-17T22:54:12.194Z,2.60
2017-08-17T22:56:41.292Z,3.40
2017-08-17T22:59:10.408Z,3.90
2017-08-17T23:01:39.518Z,4.07
2017-08-17T23:04:08.649Z,4.07
2017-08-17T23:06:37.757Z,3.00
2017-08-17T23:09:06.881Z,3.10
2017-08-17T23:11:35.999Z,8.83
2017-08-17T23:14:05.100Z,3.57
2017-08-17T23:16:34.225Z,4.23
2017-08-17T23:19:03.336Z,5.27
2017-08-17T23:21:32.456Z,3.60
2017-08-17T23:24:01.565Z,3.13
2017-08-17T23:26:31.215Z,3.10
2017-08-17T23:29:00.343Z,3.20
2017-08-17T23:31:29.457Z,5.73
2017-08-17T23:33:58.624Z,3.60
2017-08-17T23:36:27.724Z,6.53
2017-08-17T23:38:56.841Z,5.60
2017-08-17T23:41:25.963Z,3.70
2017-08-17T23:43:55.158Z,3.70
2017-08-17T23:46:24.280Z,4.53
2017-08-17T23:48:53.388Z,3.90
2017-08-17T23:51:22.522Z,5.10
2017-08-17T23:53:51.641Z,4.10
2017-08-17T23:56:20.773Z,3.10
2017-08-17T23:58:49.882Z,5.43
